Time;durP1;ratioP1;P1;durP2;ratioP2;P2;SDS_P1;SDS_P2;PMS_P1;PMS_P2;Temp;Humidity;BMP_temperature;BMP_pressure;BME280_temperature;BME280_humidity;BME280_pressure;Samples;Min_cycle;Max_cycle;Signal;HPM_P1;HPM_P2
2022/11/03 00:01:36;;;;;;;28.92;19.52;;;;;;;8.41;100.00;99749.16;1741642;81;21022;-67
2022/11/03 00:04:07;;;;;;;28.47;20.60;;;;;;;8.42;100.00;99747.56;1726594;81;21071;-67
2022/11/03 00:06:34;;;;;;;27.52;19.20;;;;;;;8.41;100.00;99748.63;1740468;81;21683;-67
2022/11/03 00:09:03;;;;;;;28.12;21.27;;;;;;;8.46;100.00;99750.58;1724832;82;21014;-67
2022/11/03 00:11:33;;;;;;;28.67;19.87;;;;;;;8.47;100.00;99750.84;1735313;81;21042;-67
2022/11/03 00:13:59;;;;;;;32.00;21.15;;;;;;;8.52;100.00;99741.94;1763412;80;21019;-68
2022/11/03 00:16:26;;;;;;;28.52;20.68;;;;;;;8.63;100.00;99747.20;1764966;80;21030;-67
2022/11/03 00:18:52;;;;;;;30.15;20.55;;;;;;;8.73;100.00;99758.67;1754630;80;21014;-67
2022/11/03 00:21:20;;;;;;;30.97;22.65;;;;;;;8.76;100.00;99755.43;1757339;80;21042;-67
2022/11/03 00:23:46;;;;;;;29.45;21.70;;;;;;;8.74;100.00;99749.45;1784383;80;20987;-67
2022/11/03 00:26:23;;;;;;;34.38;21.62;;;;;;;8.73;100.00;99749.17;1761581;80;21090;-68
2022/11/03 00:28:51;;;;;;;28.45;20.48;;;;;;;8.79;100.00;99746.77;1756435;80;20999;-67
2022/11/03 00:31:21;;;;;;;28.27;20.82;;;;;;;8.88;100.00;99743.87;1753603;80;21089;-67
2022/11/03 00:33:48;;;;;;;30.72;20.82;;;;;;;8.91;100.00;99742.80;1750381;80;21357;-67
2022/11/03 00:36:17;;;;;;;29.60;20.85;;;;;;;8.91;100.00;99736.55;1757023;80;21100;-67
2022/11/03 00:38:44;;;;;;;29.10;19.65;;;;;;;8.92;100.00;99739.55;1752103;80;21073;-67
2022/11/03 00:41:10;;;;;;;;;;;;;;;8.97;100.00;99739.58;1762103;80;21035;-67
2022/11/03 00:43:37;;;;;;;29.60;19.93;;;;;;;9.06;100.00;99739.91;1751223;80;20110;-67
2022/11/03 00:46:05;;;;;;;29.85;21.35;;;;;;;9.07;100.00;99742.35;1726808;82;21763;-67
2022/11/03 00:48:32;;;;;;;32.98;21.87;;;;;;;9.06;100.00;99739.38;1733385;80;21021;-67
2022/11/03 00:51:19;;;;;;;28.65;21.42;;;;;;;9.06;100.00;99737.20;1780604;79;21013;-67
2022/11/03 00:53:54;;;;;;;29.10;19.45;;;;;;;9.03;100.00;99737.73;1769855;81;21535;-67
2022/11/03 00:56:26;;;;;;;29.90;19.65;;;;;;;9.07;100.00;99738.84;1779556;79;21083;-67
2022/11/03 00:58:53;;;;;;;28.38;19.65;;;;;;;9.15;100.00;99731.00;1788045;79;21020;-67
2022/11/03 01:01:21;;;;;;;30.45;20.77;;;;;;;9.18;100.00;99732.38;1805877;79;20984;-67
2022/11/03 01:06:50;;;;;;;31.35;20.12;;;;;;;9.14;100.00;99733.44;1748070;81;21029;-67
2022/11/03 01:09:25;;;;;;;28.47;19.00;;;;;;;9.18;100.00;99738.62;1771651;79;21630;-67
2022/11/03 01:12:00;;;;;;;28.00;19.98;;;;;;;9.26;100.00;99740.03;1773199;79;21115;-67
2022/11/03 01:14:34;;;;;;;31.87;21.15;;;;;;;9.28;100.00;99741.39;1765040;80;21033;-67
2022/11/03 01:17:03;;;;;;;30.80;21.00;;;;;;;9.21;100.00;99744.09;1736057;81;21037;-67
2022/11/03 01:19:30;;;;;;;28.65;20.02;;;;;;;9.09;100.00;99740.75;1772259;81;21522;-67
2022/11/03 01:21:57;;;;;;;25.55;19.02;;;;;;;9.04;100.00;99740.16;1771285;79;21058;-67
2022/11/03 01:24:23;;;;;;;28.40;19.70;;;;;;;9.08;100.00;99745.36;1775433;79;20993;-68
2022/11/03 01:26:50;;;;;;;25.02;18.15;;;;;;;9.05;100.00;99739.63;1773163;79;21004;-68
2022/11/03 01:29:17;;;;;;;28.73;20.52;;;;;;;8.94;100.00;99739.56;1774228;79;20984;-67
2022/11/03 01:31:45;;;;;;;31.07;19.40;;;;;;;8.88;100.00;99739.26;1785388;79;21096;-68
2022/11/03 01:34:14;;;;;;;32.35;20.45;;;;;;;8.90;100.00;99747.95;1771683;79;21029;-68
2022/11/03 01:36:41;;;;;;;30.05;19.52;;;;;;;8.92;100.00;99746.34;1774425;79;21017;-67
2022/11/03 01:39:12;;;;;;;37.63;22.22;;;;;;;8.93;100.00;99744.70;1772068;79;21001;-68
2022/11/03 01:41:39;;;;;;;33.18;21.12;;;;;;;8.92;100.00;99739.02;1779381;78;21468;-67
2022/11/03 01:44:11;;;;;;;32.03;20.52;;;;;;;8.90;100.00;99742.52;1770658;79;21005;-68
2022/11/03 01:47:00;;;;;;;38.35;21.80;;;;;;;8.96;100.00;99742.03;1778895;78;21034;-67
2022/11/03 01:49:32;;;;;;;42.83;24.57;;;;;;;9.00;100.00;99740.41;1783218;79;20993;-67
2022/11/03 01:52:25;;;;;;;46.25;24.02;;;;;;;8.97;100.00;99740.93;1785679;80;20973;-67
2022/11/03 01:54:57;;;;;;;55.30;24.60;;;;;;;8.94;100.00;99736.84;1756152;80;21013;-67
2022/11/03 01:57:28;;;;;;;47.30;23.92;;;;;;;8.94;100.00;99739.56;1777644;80;21029;-68
2022/11/03 01:59:54;;;;;;;51.08;24.18;;;;;;;9.02;100.00;99734.19;1760398;80;21607;-67
2022/11/03 02:02:22;;;;;;;50.20;24.98;;;;;;;9.08;100.00;99739.92;1732807;81;21013;-68
2022/11/03 02:04:49;;;;;;;48.40;26.35;;;;;;;9.10;100.00;99741.03;1744935;81;21497;-67
2022/11/03 02:07:35;;;;;;;53.13;26.25;;;;;;;9.05;100.00;99740.45;1757184;80;21942;-68
2022/11/03 02:10:03;;;;;;;48.63;24.07;;;;;;;9.11;100.00;99735.86;1745651;81;21007;-67
2022/11/03 02:12:31;;;;;;;46.48;23.67;;;;;;;9.20;100.00;99726.97;1762809;81;21506;-67
2022/11/03 02:15:02;;;;;;;62.40;27.10;;;;;;;9.26;100.00;99731.88;1746377;81;21041;-67
2022/11/03 02:17:29;;;;;;;45.67;23.75;;;;;;;9.26;100.00;99732.70;1759999;80;21038;-67
2022/11/03 02:20:01;;;;;;;;;;;;;;;9.31;100.00;99727.84;1748595;80;21002;-67
2022/11/03 02:22:46;;;;;;;41.80;21.60;;;;;;;9.36;100.00;99729.22;1749656;80;20141;-67
2022/11/03 02:25:44;;;;;;;43.85;22.55;;;;;;;9.35;100.00;99733.04;1748263;80;21031;-67
2022/11/03 02:28:12;;;;;;;;;;;;;;;9.28;100.00;99729.73;1768928;80;20990;-67
2022/11/03 02:31:15;;;;;;;47.55;22.70;;;;;;;9.22;100.00;99730.23;1755128;80;20421;-67
2022/11/03 02:34:17;;;;;;;47.38;20.95;;;;;;;9.23;100.00;99731.05;1751978;80;21074;-67
2022/11/03 02:36:53;;;;;;;37.73;20.17;;;;;;;9.32;100.00;99730.28;1756471;80;21066;-67
2022/11/03 02:39:22;;;;;;;;;;;;;;;9.34;100.00;99728.14;1754035;80;20998;-67
2022/11/03 02:41:51;;;;;;;36.25;20.55;;;;;;;9.30;100.00;99724.31;1760564;80;20142;-67
2022/11/03 02:44:19;;;;;;;33.65;19.00;;;;;;;9.19;100.00;99721.26;1731998;80;21054;-67
2022/11/03 02:46:51;;;;;;;32.95;18.77;;;;;;;9.28;100.00;99717.52;1744921;80;21047;-67
2022/11/03 02:49:17;;;;;;;28.80;17.77;;;;;;;9.34;100.00;99715.09;1780593;80;21982;-67
2022/11/03 02:51:43;;;;;;;31.10;18.25;;;;;;;9.30;100.00;99716.16;1763056;80;21005;-67
2022/11/03 02:54:22;;;;;;;29.05;17.60;;;;;;;9.27;100.00;99710.44;1764595;80;21026;-67
2022/11/03 02:56:53;;;;;;;29.30;17.15;;;;;;;9.27;100.00;99718.05;1788694;78;21088;-67
2022/11/03 02:59:24;;;;;;;24.75;15.90;;;;;;;9.30;100.00;99715.34;1774201;79;21037;-67
2022/11/03 03:01:55;;;;;;;25.65;16.25;;;;;;;9.29;100.00;99718.59;1786426;79;21020;-67
2022/11/03 03:04:30;;;;;;;25.15;17.15;;;;;;;9.27;100.00;99717.23;1787047;79;21067;-67
2022/11/03 03:07:02;;;;;;;26.68;15.23;;;;;;;9.29;100.00;99714.52;1761292;80;21015;-67
2022/11/03 03:09:41;;;;;;;25.52;14.65;;;;;;;9.40;100.00;99712.13;1751165;80;21004;-67
2022/11/03 03:12:08;;;;;;;25.17;15.72;;;;;;;9.47;100.00;99711.35;1763612;80;21013;-67
2022/11/03 03:14:37;;;;;;;21.75;13.83;;;;;;;9.47;100.00;99715.42;1756997;81;21017;-67
2022/11/03 03:17:14;;;;;;;23.73;14.15;;;;;;;9.46;100.00;99718.39;1759892;80;21017;-67
2022/11/03 03:20:04;;;;;;;21.23;14.60;;;;;;;9.48;100.00;99709.45;1732502;81;21001;-67
2022/11/03 03:22:47;;;;;;;21.80;14.50;;;;;;;9.48;100.00;99709.45;1793283;79;21023;-67
2022/11/03 03:25:28;;;;;;;25.65;15.25;;;;;;;9.42;100.00;99712.67;1786208;79;21022;-67
2022/11/03 03:28:02;;;;;;;25.12;13.90;;;;;;;9.35;100.00;99703.95;1773645;79;20941;-67
2022/11/03 03:30:29;;;;;;;19.73;12.95;;;;;;;9.37;100.00;99707.23;1775433;79;21017;-67
2022/11/03 03:32:57;;;;;;;19.73;14.28;;;;;;;9.37;100.00;99704.52;1790804;79;20986;-67
2022/11/03 03:35:25;;;;;;;20.52;13.32;;;;;;;9.36;100.00;99703.41;1784672;79;21004;-67
2022/11/03 03:37:56;;;;;;;21.37;12.88;;;;;;;9.31;100.00;99699.33;1769779;79;20937;-67
2022/11/03 03:40:29;;;;;;;19.00;12.55;;;;;;;9.31;100.00;99698.79;1770812;79;21039;-67
2022/11/03 03:42:56;;;;;;;17.02;12.50;;;;;;;9.34;100.00;99687.39;1744979;81;20946;-67
2022/11/03 03:45:23;;;;;;;18.37;13.00;;;;;;;9.30;100.00;99690.36;1744010;79;21552;-67
2022/11/03 03:47:51;;;;;;;18.37;12.90;;;;;;;9.26;100.00;99692.50;1772945;79;21028;-67
2022/11/03 13:43:45;;;;;;;21.25;15.23;;;;;;;8.62;100.00;99695.35;1786080;78;22979;-70
2022/11/03 13:46:13;;;;;;;15.72;12.15;;;;;;;8.70;100.00;99711.16;1765938;80;21046;-69
2022/11/03 13:48:39;;;;;;;;;;;;;;;8.92;100.00;99712.41;1757979;81;21718;-70
2022/11/03 13:51:09;;;;;;;11.08;8.75;;;;;;;9.07;100.00;99710.33;1757166;80;20481;-70
2022/11/03 13:53:34;;;;;;;10.65;8.15;;;;;;;9.15;100.00;99704.38;1758439;81;21141;-69
2022/11/03 13:56:01;;;;;;;11.10;7.12;;;;;;;9.27;100.00;99715.88;1761143;80;21058;-70
2022/11/03 13:58:28;;;;;;;11.12;8.33;;;;;;;9.37;100.00;99713.20;1774569;80;21676;-71
2022/11/03 14:00:55;;;;;;;10.10;7.95;;;;;;;9.44;100.00;99715.14;1775283;80;22195;-71
2022/11/03 14:03:22;;;;;;;11.85;8.33;;;;;;;9.49;100.00;99717.33;1754663;80;21099;-69
2022/11/03 14:05:48;;;;;;;9.80;7.35;;;;;;;9.54;100.00;99726.59;1753863;81;21500;-69
2022/11/03 14:08:14;;;;;;;8.90;6.25;;;;;;;9.57;100.00;99730.95;1753521;82;21111;-69
2022/11/03 14:10:41;;;;;;;8.88;7.25;;;;;;;9.61;100.00;99736.13;1768591;80;21043;-69
2022/11/03 14:13:08;;;;;;;6.92;5.35;;;;;;;9.60;100.00;99731.77;1768366;80;21103;-71
2022/11/03 14:15:36;;;;;;;8.95;5.87;;;;;;;9.62;100.00;99743.75;1766185;80;20959;-71
2022/11/03 14:18:03;;;;;;;12.47;9.55;;;;;;;9.66;100.00;99740.25;1767382;80;21035;-71
2022/11/03 14:20:31;;;;;;;10.98;7.70;;;;;;;9.69;100.00;99736.17;1765500;80;20983;-70
2022/11/03 14:22:58;;;;;;;21.05;13.25;;;;;;;9.74;100.00;99748.44;1785673;80;21038;-71
2022/11/03 14:25:25;;;;;;;18.98;12.40;;;;;;;9.78;100.00;99741.36;1784694;80;21466;-72
2022/11/03 14:27:51;;;;;;;7.95;6.17;;;;;;;9.79;100.00;99744.36;1760528;80;21106;-71
2022/11/03 14:30:18;;;;;;;;;;;;;;;9.85;100.00;99747.37;1769045;80;20985;-70
2022/11/03 14:32:44;;;;;;;11.38;7.45;;;;;;;9.84;100.00;99742.50;1766436;80;20311;-70
2022/11/03 14:35:11;;;;;;;10.10;7.05;;;;;;;9.81;100.00;99758.52;1759393;81;21059;-71
2022/11/03 14:37:38;;;;;;;8.25;6.25;;;;;;;9.82;100.00;99754.16;1774532;80;21510;-70
2022/11/03 14:40:06;;;;;;;7.00;5.55;;;;;;;9.86;100.00;99762.06;1769860;80;20987;-71
2022/11/03 14:42:33;;;;;;;9.23;6.12;;;;;;;9.87;100.00;99765.07;1715808;82;21103;-71
2022/11/03 14:45:00;;;;;;;5.10;3.83;;;;;;;9.90;100.00;99769.15;1739547;80;21561;-70
2022/11/03 14:47:30;;;;;;;5.22;2.85;;;;;;;9.95;100.00;99767.25;1763476;80;21086;-70
2022/11/03 14:49:56;;;;;;;6.00;3.25;;;;;;;10.01;100.00;99773.55;1769078;80;21472;-70
2022/11/03 14:52:23;;;;;;;4.15;2.83;;;;;;;9.99;100.00;99776.52;1776256;80;21153;-71
2022/11/03 14:54:51;;;;;;;4.35;2.77;;;;;;;9.99;100.00;99773.80;1759697;80;21158;-72
2022/11/03 14:57:17;;;;;;;4.30;2.25;;;;;;;10.06;100.00;99777.63;1753218;81;21047;-70
2022/11/03 14:59:44;;;;;;;4.12;2.92;;;;;;;10.11;100.00;99777.66;1753347;80;21355;-69
2022/11/03 15:02:10;;;;;;;4.55;2.60;;;;;;;10.13;100.00;99780.12;1757253;80;21079;-69
2022/11/03 15:04:37;;;;;;;4.53;2.80;;;;;;;10.12;100.00;99783.38;1751095;80;21894;-70
2022/11/03 15:07:04;;;;;;;3.47;2.42;;;;;;;10.10;100.00;99778.73;1762611;81;21090;-70
2022/11/03 15:09:31;;;;;;;3.10;2.45;;;;;;;10.12;100.00;99789.36;1766708;81;21028;-69
2022/11/03 15:11:59;;;;;;;4.60;3.30;;;;;;;10.16;100.00;99788.59;1764814;80;21928;-68
2022/11/03 15:14:26;;;;;;;5.65;3.22;;;;;;;10.10;100.00;99786.06;1759432;81;21003;-69
2022/11/03 15:16:54;;;;;;;6.28;4.15;;;;;;;10.12;100.00;99787.99;1761616;81;21071;-69
2022/11/03 15:19:22;;;;;;;9.40;7.35;;;;;;;10.16;100.00;99785.05;1754234;81;20972;-69
2022/11/03 15:21:48;;;;;;;5.65;4.53;;;;;;;10.12;100.00;99785.27;1756229;80;21031;-69
2022/11/03 15:24:15;;;;;;;5.65;3.80;;;;;;;10.10;100.00;99789.61;1755893;81;20996;-69
2022/11/03 15:26:43;;;;;;;6.25;3.85;;;;;;;10.16;100.00;99791.31;1757253;81;21972;-69
2022/11/03 15:29:10;;;;;;;6.17;3.17;;;;;;;10.11;100.00;99792.61;1772102;80;21051;-69
2022/11/03 15:31:36;;;;;;;9.63;6.28;;;;;;;10.10;100.00;99788.78;1753577;81;21029;-68
2022/11/03 15:34:02;;;;;;;;;;;;;;;10.11;100.00;99799.95;1751753;81;21999;-70
2022/11/03 15:36:29;;;;;;;4.92;3.40;;;;;;;10.06;100.00;99803.46;1756570;80;20111;-70
2022/11/03 15:38:55;;;;;;;;;;;;;;;10.06;100.00;99798.59;1755043;80;21003;-70
2022/11/03 15:41:22;;;;;;;4.05;2.72;;;;;;;10.03;100.00;99803.17;1767567;80;20116;-69
2022/11/03 15:43:49;;;;;;;3.65;2.27;;;;;;;9.96;100.00;99811.05;1709829;82;21056;-69
2022/11/03 15:46:16;;;;;;;4.83;2.83;;;;;;;10.04;100.00;99800.20;1710078;81;21003;-69
2022/11/03 15:48:43;;;;;;;4.22;2.90;;;;;;;10.03;100.00;99812.16;1674845;85;21043;-67
2022/11/03 15:51:10;;;;;;;4.90;2.65;;;;;;;9.92;100.00;99811.30;1688053;84;20968;-69
2022/11/03 15:53:38;;;;;;;5.05;3.90;;;;;;;9.90;100.00;99811.30;1681737;84;20996;-68
2022/11/03 15:56:05;;;;;;;22.02;19.23;;;;;;;9.93;100.00;99814.84;1687782;84;21008;-68
2022/11/03 15:58:33;;;;;;;4.72;3.22;;;;;;;9.94;100.00;99815.12;1683540;84;21071;-69
2022/11/03 16:01:02;;;;;;;9.20;4.58;;;;;;;9.88;100.00;99811.55;1736329;82;20961;-68
2022/11/03 16:03:30;;;;;;;11.45;8.83;;;;;;;9.86;100.00;99808.83;1735803;82;21127;-68
2022/11/03 16:05:56;;;;;;;9.40;5.53;;;;;;;9.92;100.00;99813.19;1738618;82;21048;-69
2022/11/03 16:08:23;;;;;;;;;;;;;;;9.96;100.00;99815.66;1746998;82;21043;-68
2022/11/03 16:10:49;;;;;;;6.90;4.78;;;;;;;9.84;100.00;99805.03;1744080;82;20114;-68
2022/11/03 16:13:17;;;;;;;7.40;4.90;;;;;;;9.89;100.00;99812.38;1735784;82;21586;-68
2022/11/03 16:15:45;;;;;;;7.35;4.42;;;;;;;9.91;100.00;99808.86;1715571;82;21004;-69
2022/11/03 16:18:12;;;;;;;8.95;4.45;;;;;;;9.88;100.00;99814.83;1690455;84;21887;-69
2022/11/03 16:20:39;;;;;;;8.20;5.22;;;;;;;9.86;100.00;99816.98;1736120;82;20988;-68
2022/11/03 16:23:05;;;;;;;5.08;2.90;;;;;;;9.89;100.00;99821.89;1703985;84;21099;-68
2022/11/03 16:25:33;;;;;;;2.90;2.20;;;;;;;9.85;100.00;99816.70;1693510;84;21055;-68
2022/11/03 16:27:59;;;;;;;4.03;2.50;;;;;;;9.79;100.00;99819.13;1693740;84;22288;-68
2022/11/03 16:30:26;;;;;;;4.22;2.70;;;;;;;9.83;100.00;99820.23;1667581;84;21103;-70
2022/11/03 16:32:52;;;;;;;;;;;;;;;9.90;100.00;99818.09;1696303;83;21071;-69
2022/11/03 16:35:19;;;;;;;5.17;3.10;;;;;;;9.88;100.00;99816.20;1703703;83;20127;-68
2022/11/03 16:37:46;;;;;;;7.40;3.20;;;;;;;9.80;100.00;99816.16;1673581;84;21061;-67
2022/11/03 16:40:13;;;;;;;6.87;4.22;;;;;;;9.87;100.00;99815.38;1744396;81;21047;-71
2022/11/03 16:42:40;;;;;;;6.08;3.95;;;;;;;9.90;100.00;99817.55;1736634;81;21060;-70
2022/11/03 16:45:18;;;;;;;5.22;3.27;;;;;;;9.86;100.00;99822.42;1726659;81;21512;-70
2022/11/03 16:47:46;;;;;;;5.12;2.95;;;;;;;9.86;100.00;99817.80;1736465;82;21033;-71
2022/11/03 16:50:12;;;;;;;3.20;2.40;;;;;;;9.85;100.00;99813.44;1742515;82;20934;-70
2022/11/03 16:52:39;;;;;;;4.70;4.20;;;;;;;9.81;100.00;99811.54;1694874;82;21067;-70
2022/11/03 16:55:06;;;;;;;;;;;;;;;9.69;100.00;99813.11;1690264;83;20994;-71
2022/11/03 16:57:34;;;;;;;5.10;3.72;;;;;;;9.65;100.00;99809.81;1660256;85;20149;-71
2022/11/03 17:00:00;;;;;;;5.47;3.00;;;;;;;9.62;100.00;99813.06;1702634;84;21521;-70
2022/11/03 17:02:26;;;;;;;;;;;;;;;9.55;100.00;99816.02;1685148;84;21637;-70
2022/11/03 17:04:53;;;;;;;2.80;2.00;;;;;;;9.50;100.00;99813.25;1700356;84;20121;-70
2022/11/03 17:07:20;;;;;;;2.77;2.08;;;;;;;9.54;100.00;99812.19;1701560;84;21546;-71
2022/11/03 17:09:46;;;;;;;;;;;;;;;9.60;100.00;99822.03;1693899;84;20947;-70
2022/11/03 17:12:13;;;;;;;4.05;2.35;;;;;;;9.62;100.00;99821.21;1694619;84;20424;-70
2022/11/03 17:14:39;;;;;;;2.90;2.10;;;;;;;9.50;100.00;99820.87;1692946;84;21066;-70
2022/11/03 17:17:07;;;;;;;3.30;2.10;;;;;;;9.56;100.00;99819.02;1664571;85;21108;-71
2022/11/03 17:19:34;;;;;;;5.42;2.30;;;;;;;9.66;100.00;99819.07;1683217;84;21046;-71
2022/11/03 17:22:01;;;;;;;3.87;2.50;;;;;;;9.70;100.00;99816.64;1684376;84;21665;-71
2022/11/03 17:24:28;;;;;;;7.10;2.80;;;;;;;9.68;100.00;99812.81;1689016;84;20974;-70
2022/11/03 17:27:06;;;;;;;5.40;2.70;;;;;;;9.72;100.00;99821.27;1720381;82;21054;-71
2022/11/03 17:29:47;;;;;;;6.45;3.92;;;;;;;9.80;100.00;99821.59;1727791;82;21067;-70
2022/11/03 17:32:23;;;;;;;9.08;5.05;;;;;;;9.82;100.00;99813.98;1733892;82;21097;-71
2022/11/03 17:34:50;;;;;;;10.38;5.50;;;;;;;9.80;100.00;99812.61;1742170;82;20956;-70
2022/11/03 17:37:17;;;;;;;7.05;4.80;;;;;;;9.84;100.00;99806.39;1741443;81;20984;-70
2022/11/03 17:39:44;;;;;;;7.45;5.08;;;;;;;9.90;100.00;99813.48;1699951;82;21056;-71
2022/11/03 17:42:25;;;;;;;7.67;5.03;;;;;;;9.91;100.00;99809.69;1700699;83;21954;-70
2022/11/03 17:44:54;;;;;;;9.53;6.37;;;;;;;9.87;100.00;99809.11;1690030;84;20999;-70
2022/11/03 21:05:15;;;;;;;22.07;13.62;;;;;;;8.18;100.00;99793.67;1772643;79;22910;-73
2022/11/03 21:07:43;;;;;;;17.50;10.90;;;;;;;8.29;100.00;99804.13;1748771;80;21042;-72
2022/11/03 21:10:10;;;;;;;13.70;8.50;;;;;;;8.56;100.00;99805.47;1754657;80;21481;-72
2022/11/03 21:12:36;;;;;;;12.07;7.95;;;;;;;8.72;100.00;99801.27;1743578;82;21018;-72
2022/11/03 21:20:46;;;;;;;10.75;6.70;;;;;;;9.08;100.00;99796.95;1752474;80;21549;-73
2022/11/03 21:23:23;;;;;;;;;;;;;;;9.12;100.00;99804.04;1756876;80;21142;-73
2022/11/03 21:25:50;;;;;;;13.05;6.78;;;;;;;9.14;100.00;99799.19;1747489;80;20186;-71
2022/11/03 21:28:18;;;;;;;10.32;6.22;;;;;;;9.17;100.00;99802.20;1752479;81;21655;-71
2022/11/03 21:30:48;;;;;;;10.63;6.40;;;;;;;9.19;100.00;99801.92;1742159;81;21587;-71
2022/11/03 21:33:15;;;;;;;10.35;5.55;;;;;;;9.23;100.00;99790.28;1743769;80;21027;-71
2022/11/03 21:35:44;;;;;;;10.65;6.05;;;;;;;9.29;100.00;99793.30;1746890;80;21485;-72
2022/11/03 21:38:11;;;;;;;12.35;6.28;;;;;;;9.29;100.00;99793.30;1753183;81;21133;-72
2022/11/03 21:40:45;;;;;;;13.88;6.53;;;;;;;9.30;100.00;99795.48;1755931;80;20984;-71
2022/11/03 21:46:06;;;;;;;14.07;7.05;;;;;;;9.30;100.00;99788.15;1777547;80;21547;-72
2022/11/03 21:51:20;;;;;;;11.45;5.92;;;;;;;9.27;100.00;99781.89;1758150;80;21032;-71
2022/11/03 21:53:46;;;;;;;71.62;14.00;;;;;;;9.28;100.00;99775.92;1749943;80;21066;-71
2022/11/03 21:56:14;;;;;;;10.55;6.42;;;;;;;9.27;100.00;99772.91;1759067;81;21045;-73
2022/11/03 21:58:42;;;;;;;10.60;7.17;;;;;;;9.22;100.00;99766.91;1722814;83;21576;-73
2022/11/03 22:01:09;;;;;;;10.72;6.78;;;;;;;9.13;100.00;99764.41;1728144;83;22154;-73
2022/11/03 22:03:37;;;;;;;12.55;7.53;;;;;;;9.12;100.00;99762.77;1744982;80;21121;-73
2022/11/03 22:06:07;;;;;;;13.78;7.80;;;;;;;9.07;100.00;99766.79;1718233;82;21107;-73
2022/11/03 22:08:36;;;;;;;10.82;6.90;;;;;;;8.96;100.00;99763.19;1748857;81;21594;-73
2022/11/03 22:11:22;;;;;;;11.28;6.05;;;;;;;8.91;100.00;99766.41;1744595;81;21060;-73
2022/11/03 22:13:54;;;;;;;12.33;6.17;;;;;;;8.93;100.00;99769.14;1756807;81;21095;-72
2022/11/03 22:16:37;;;;;;;10.18;6.42;;;;;;;8.91;100.00;99766.41;1750611;81;20988;-72
2022/11/03 22:27:24;;;;;;;11.95;7.40;;;;;;;8.77;100.00;99760.61;1750482;81;21466;-73
2022/11/03 22:32:37;;;;;;;15.65;7.80;;;;;;;8.75;100.00;99753.81;1746938;81;20950;-73
2022/11/03 22:38:08;;;;;;;12.60;6.72;;;;;;;8.88;100.00;99758.80;1751231;81;20166;-72
2022/11/03 22:46:08;;;;;;;11.93;6.72;;;;;;;8.89;100.00;99756.37;1760063;81;21039;-72
2022/11/03 22:48:34;;;;;;;10.88;6.15;;;;;;;8.90;100.00;99756.63;1751497;81;21090;-74
2022/11/03 22:51:14;;;;;;;11.83;6.78;;;;;;;8.96;100.00;99759.11;1748577;81;21000;-73
2022/11/03 22:56:29;;;;;;;10.05;6.15;;;;;;;8.96;100.00;99752.89;1749460;81;21064;-73
2022/11/03 22:58:55;;;;;;;11.68;6.25;;;;;;;8.97;100.00;99756.69;1750067;81;21076;-74
2022/11/03 23:01:25;;;;;;;12.58;6.20;;;;;;;9.02;100.00;99749.66;1754131;81;21047;-74
2022/11/03 23:03:51;;;;;;;10.23;5.62;;;;;;;8.96;100.00;99756.39;1742928;81;21083;-73
2022/11/03 23:06:21;;;;;;;11.25;5.87;;;;;;;8.94;100.00;99750.95;1732588;82;21042;-74
2022/11/03 23:08:48;;;;;;;10.63;5.60;;;;;;;8.98;100.00;99761.58;1750803;81;21170;-73
2022/11/03 23:11:17;;;;;;;;;;;;;;;9.00;100.00;99756.70;1752032;81;20968;-73
2022/11/03 23:13:58;;;;;;;11.03;6.25;;;;;;;8.99;100.00;99753.19;1740263;81;20144;-73
2022/11/03 23:16:36;;;;;;;12.05;6.08;;;;;;;8.88;100.00;99746.05;1742870;81;21015;-72
2022/11/03 23:21:50;;;;;;;11.73;6.00;;;;;;;9.01;100.00;99746.12;1753262;81;20944;-73
2022/11/03 23:27:03;;;;;;;11.05;6.25;;;;;;;8.96;100.00;99739.31;1733271;82;22091;-73
2022/11/03 23:29:29;;;;;;;11.40;6.58;;;;;;;8.99;100.00;99743.69;1743920;81;21126;-73
2022/11/03 23:31:57;;;;;;;13.48;6.30;;;;;;;8.95;100.00;99743.10;1744624;82;21051;-73
2022/11/03 23:34:24;;;;;;;8.73;5.55;;;;;;;8.90;100.00;99751.20;1716732;82;21230;-73
2022/11/03 23:36:52;;;;;;;9.88;5.20;;;;;;;8.92;100.00;99743.09;1738058;81;21039;-73
2022/11/03 23:39:19;;;;;;;12.68;6.37;;;;;;;8.97;100.00;99745.83;1741606;81;21050;-73
2022/11/03 23:41:46;;;;;;;10.35;6.35;;;;;;;8.98;100.00;99747.47;1720793;81;21042;-72
2022/11/03 23:44:14;;;;;;;12.93;6.37;;;;;;;8.94;100.00;99757.21;1747801;81;21110;-73
2022/11/03 23:49:26;;;;;;;10.78;5.67;;;;;;;9.03;100.00;99750.77;1731235;82;21202;-72
2022/11/03 23:51:52;;;;;;;;;;;;;;;9.02;100.00;99754.55;1746974;81;20998;-72
2022/11/03 23:54:18;;;;;;;12.70;6.12;;;;;;;8.99;100.00;99753.72;1745106;82;20130;-72
2022/11/03 23:59:32;;;;;;;9.35;5.62;;;;;;;9.03;100.00;99756.20;1747067;81;21114;-71
